sensor_id;sensor_type;location;lat;lon;timestamp;P1;durP1;ratioP1;P2;durP2;ratioP2
8413;SDS011;4244;48.684;9.028;2023-02-01T00:01:39;5.90;;;4.63;;
8413;SDS011;4244;48.684;9.028;2023-02-01T00:04:04;5.17;;;4.17;;
8413;SDS011;4244;48.684;9.028;2023-02-01T00:06:30;3.90;;;3.50;;
8413;SDS011;4244;48.684;9.028;2023-02-01T00:08:56;5.87;;;5.10;;
8413;SDS011;4244;48.684;9.028;2023-02-01T00:11:22;6.20;;;5.03;;
8413;SDS011;4244;48.684;9.028;2023-02-01T00:13:48;5.50;;;4.60;;
8413;SDS011;4244;48.684;9.028;2023-02-01T00:16:15;6.33;;;4.70;;
8413;SDS011;4244;48.684;9.028;2023-02-01T00:18:43;5.77;;;4.70;;
8413;SDS011;4244;48.684;9.028;2023-02-01T00:21:16;4.57;;;4.07;;
8413;SDS011;4244;48.684;9.028;2023-02-01T00:23:43;5.83;;;4.63;;
8413;SDS011;4244;48.684;9.028;2023-02-01T00:26:16;6.37;;;5.03;;
8413;SDS011;4244;48.684;9.028;2023-02-01T00:28:52;5.10;;;4.60;;
8413;SDS011;4244;48.684;9.028;2023-02-01T00:31:18;5.97;;;4.73;;
8413;SDS011;4244;48.684;9.028;2023-02-01T00:33:46;6.53;;;4.30;;
8413;SDS011;4244;48.684;9.028;2023-02-01T00:36:12;5.17;;;4.67;;
8413;SDS011;4244;48.684;9.028;2023-02-01T00:38:38;5.40;;;4.40;;
8413;SDS011;4244;48.684;9.028;2023-02-01T00:41:05;4.97;;;4.47;;
8413;SDS011;4244;48.684;9.028;2023-02-01T00:43:41;6.20;;;4.60;;
8413;SDS011;4244;48.684;9.028;2023-02-01T00:46:07;5.97;;;4.10;;
8413;SDS011;4244;48.684;9.028;2023-02-01T00:48:33;5.60;;;4.53;;
8413;SDS011;4244;48.684;9.028;2023-02-01T00:51:03;4.90;;;3.80;;
8413;SDS011;4244;48.684;9.028;2023-02-01T00:53:30;5.00;;;4.47;;
8413;SDS011;4244;48.684;9.028;2023-02-01T00:55:56;4.10;;;3.70;;
8413;SDS011;4244;48.684;9.028;2023-02-01T00:58:22;4.90;;;3.60;;
8413;SDS011;4244;48.684;9.028;2023-02-01T01:01:01;4.73;;;3.80;;
8413;SDS011;4244;48.684;9.028;2023-02-01T01:03:31;4.57;;;3.90;;
8413;SDS011;4244;48.684;9.028;2023-02-01T01:06:03;4.40;;;3.47;;
8413;SDS011;4244;48.684;9.028;2023-02-01T01:08:30;4.90;;;4.00;;
8413;SDS011;4244;48.684;9.028;2023-02-01T01:10:56;3.97;;;3.57;;
8413;SDS011;4244;48.684;9.028;2023-02-01T01:13:22;3.77;;;3.37;;
8413;SDS011;4244;48.684;9.028;2023-02-01T01:15:47;5.50;;;4.00;;
8413;SDS011;4244;48.684;9.028;2023-02-01T01:18:13;5.03;;;4.10;;
8413;SDS011;4244;48.684;9.028;2023-02-01T01:20:39;3.90;;;3.43;;
8413;SDS011;4244;48.684;9.028;2023-02-01T01:23:06;4.60;;;4.20;;
8413;SDS011;4244;48.684;9.028;2023-02-01T01:25:37;5.50;;;3.67;;
8413;SDS011;4244;48.684;9.028;2023-02-01T01:28:04;5.33;;;3.50;;
8413;SDS011;4244;48.684;9.028;2023-02-01T01:30:30;4.10;;;3.70;;
8413;SDS011;4244;48.684;9.028;2023-02-01T01:32:56;4.93;;;4.43;;
8413;SDS011;4244;48.684;9.028;2023-02-01T01:35:21;4.47;;;4.07;;
8413;SDS011;4244;48.684;9.028;2023-02-01T01:37:47;4.23;;;3.83;;
8413;SDS011;4244;48.684;9.028;2023-02-01T01:40:13;4.50;;;4.10;;
8413;SDS011;4244;48.684;9.028;2023-02-01T01:42:40;4.40;;;4.00;;
8413;SDS011;4244;48.684;9.028;2023-02-01T01:45:07;4.90;;;4.17;;
8413;SDS011;4244;48.684;9.028;2023-02-01T01:47:39;5.40;;;4.40;;
8413;SDS011;4244;48.684;9.028;2023-02-01T01:50:08;4.90;;;4.50;;
8413;SDS011;4244;48.684;9.028;2023-02-01T01:52:36;5.10;;;4.50;;
8413;SDS011;4244;48.684;9.028;2023-02-01T01:55:03;5.10;;;4.60;;
8413;SDS011;4244;48.684;9.028;2023-02-01T01:57:31;5.43;;;4.93;;
8413;SDS011;4244;48.684;9.028;2023-02-01T02:00:01;5.20;;;4.60;;
8413;SDS011;4244;48.684;9.028;2023-02-01T02:02:30;5.00;;;4.50;;
8413;SDS011;4244;48.684;9.028;2023-02-01T02:04:56;5.57;;;3.90;;
8413;SDS011;4244;48.684;9.028;2023-02-01T02:07:27;5.77;;;5.27;;
8413;SDS011;4244;48.684;9.028;2023-02-01T02:09:55;4.23;;;3.83;;
8413;SDS011;4244;48.684;9.028;2023-02-01T02:12:21;5.70;;;4.30;;
8413;SDS011;4244;48.684;9.028;2023-02-01T02:14:47;6.10;;;4.87;;
8413;SDS011;4244;48.684;9.028;2023-02-01T02:17:30;6.03;;;4.77;;
8413;SDS011;4244;48.684;9.028;2023-02-01T02:20:26;4.53;;;4.13;;
8413;SDS011;4244;48.684;9.028;2023-02-01T02:28:51;3.90;;;3.50;;
8413;SDS011;4244;48.684;9.028;2023-02-01T02:35:18;4.43;;;4.03;;
8413;SDS011;4244;48.684;9.028;2023-02-01T02:37:54;5.23;;;4.03;;
8413;SDS011;4244;48.684;9.028;2023-02-01T02:40:40;5.30;;;4.33;;
8413;SDS011;4244;48.684;9.028;2023-02-01T02:43:20;4.90;;;3.97;;
8413;SDS011;4244;48.684;9.028;2023-02-01T02:51:48;3.87;;;3.50;;
8413;SDS011;4244;48.684;9.028;2023-02-01T02:54:36;4.20;;;3.80;;
8413;SDS011;4244;48.684;9.028;2023-02-01T03:00:11;4.00;;;3.70;;
8413;SDS011;4244;48.684;9.028;2023-02-01T03:02:58;3.67;;;3.33;;
8413;SDS011;4244;48.684;9.028;2023-02-01T03:05:44;3.93;;;3.63;;
8413;SDS011;4244;48.684;9.028;2023-02-01T03:11:00;3.60;;;3.23;;
8413;SDS011;4244;48.684;9.028;2023-02-01T03:13:38;5.00;;;4.50;;
8413;SDS011;4244;48.684;9.028;2023-02-01T03:21:13;4.47;;;3.90;;
8413;SDS011;4244;48.684;9.028;2023-02-01T03:23:41;5.73;;;4.77;;
8413;SDS011;4244;48.684;9.028;2023-02-01T03:26:10;5.30;;;4.50;;
8413;SDS011;4244;48.684;9.028;2023-02-01T03:28:37;4.90;;;4.40;;
8413;SDS011;4244;48.684;9.028;2023-02-01T03:31:08;5.60;;;4.97;;
8413;SDS011;4244;48.684;9.028;2023-02-01T03:33:34;4.97;;;4.47;;
8413;SDS011;4244;48.684;9.028;2023-02-01T03:39:00;5.30;;;4.10;;
8413;SDS011;4244;48.684;9.028;2023-02-01T03:41:30;4.37;;;3.90;;
8413;SDS011;4244;48.684;9.028;2023-02-01T03:46:54;4.70;;;4.30;;
8413;SDS011;4244;48.684;9.028;2023-02-01T03:49:39;4.40;;;3.60;;
8413;SDS011;4244;48.684;9.028;2023-02-01T03:52:09;3.83;;;3.37;;
8413;SDS011;4244;48.684;9.028;2023-02-01T03:54:39;5.00;;;4.27;;
8413;SDS011;4244;48.684;9.028;2023-02-01T03:57:07;4.70;;;4.20;;
8413;SDS011;4244;48.684;9.028;2023-02-01T03:59:41;3.93;;;3.53;;
8413;SDS011;4244;48.684;9.028;2023-02-01T04:02:09;4.97;;;4.33;;
8413;SDS011;4244;48.684;9.028;2023-02-01T04:04:34;5.37;;;4.23;;
8413;SDS011;4244;48.684;9.028;2023-02-01T04:07:00;6.43;;;4.63;;
8413;SDS011;4244;48.684;9.028;2023-02-01T04:09:26;5.13;;;4.53;;
8413;SDS011;4244;48.684;9.028;2023-02-01T04:11:51;7.33;;;5.00;;
8413;SDS011;4244;48.684;9.028;2023-02-01T04:14:17;4.83;;;4.10;;
8413;SDS011;4244;48.684;9.028;2023-02-01T04:16:43;5.27;;;4.77;;
8413;SDS011;4244;48.684;9.028;2023-02-01T04:19:08;4.80;;;4.40;;
8413;SDS011;4244;48.684;9.028;2023-02-01T04:21:34;4.53;;;4.13;;
8413;SDS011;4244;48.684;9.028;2023-02-01T04:24:00;4.37;;;3.97;;
8413;SDS011;4244;48.684;9.028;2023-02-01T04:26:25;4.47;;;3.93;;
8413;SDS011;4244;48.684;9.028;2023-02-01T04:28:51;7.77;;;4.10;;
8413;SDS011;4244;48.684;9.028;2023-02-01T04:31:17;4.27;;;3.87;;
8413;SDS011;4244;48.684;9.028;2023-02-01T04:33:50;4.10;;;3.70;;
8413;SDS011;4244;48.684;9.028;2023-02-01T04:36:20;5.60;;;4.40;;
8413;SDS011;4244;48.684;9.028;2023-02-01T04:38:47;4.83;;;4.33;;
8413;SDS011;4244;48.684;9.028;2023-02-01T04:41:15;4.70;;;4.03;;
8413;SDS011;4244;48.684;9.028;2023-02-01T04:43:47;4.03;;;3.60;;
8413;SDS011;4244;48.684;9.028;2023-02-01T04:46:13;4.27;;;3.87;;
8413;SDS011;4244;48.684;9.028;2023-02-01T04:48:39;3.57;;;3.27;;
8413;SDS011;4244;48.684;9.028;2023-02-01T04:51:05;3.93;;;3.53;;
8413;SDS011;4244;48.684;9.028;2023-02-01T04:53:30;3.87;;;3.47;;
8413;SDS011;4244;48.684;9.028;2023-02-01T04:55:56;4.03;;;3.73;;
8413;SDS011;4244;48.684;9.028;2023-02-01T04:58:22;4.00;;;3.60;;
8413;SDS011;4244;48.684;9.028;2023-02-01T05:00:47;4.33;;;3.93;;
8413;SDS011;4244;48.684;9.028;2023-02-01T05:03:13;3.70;;;3.40;;
8413;SDS011;4244;48.684;9.028;2023-02-01T05:05:39;4.03;;;3.33;;
8413;SDS011;4244;48.684;9.028;2023-02-01T05:08:05;5.33;;;3.90;;
8413;SDS011;4244;48.684;9.028;2023-02-01T05:10:31;4.23;;;3.47;;
8413;SDS011;4244;48.684;9.028;2023-02-01T05:12:56;4.60;;;3.57;;
8413;SDS011;4244;48.684;9.028;2023-02-01T05:15:40;4.40;;;3.67;;
8413;SDS011;4244;48.684;9.028;2023-02-01T05:18:06;4.13;;;3.43;;
8413;SDS011;4244;48.684;9.028;2023-02-01T05:20:32;3.73;;;2.90;;
8413;SDS011;4244;48.684;9.028;2023-02-01T05:22:57;3.43;;;3.13;;
8413;SDS011;4244;48.684;9.028;2023-02-01T05:25:23;4.13;;;2.97;;
8413;SDS011;4244;48.684;9.028;2023-02-01T05:27:49;3.53;;;3.10;;
8413;SDS011;4244;48.684;9.028;2023-02-01T05:30:14;3.10;;;2.80;;
8413;SDS011;4244;48.684;9.028;2023-02-01T05:32:40;4.07;;;3.20;;
8413;SDS011;4244;48.684;9.028;2023-02-01T05:35:06;3.27;;;2.83;;
8413;SDS011;4244;48.684;9.028;2023-02-01T05:37:32;3.63;;;2.97;;
8413;SDS011;4244;48.684;9.028;2023-02-01T05:39:58;3.70;;;2.93;;
8413;SDS011;4244;48.684;9.028;2023-02-01T05:42:23;3.17;;;2.87;;
8413;SDS011;4244;48.684;9.028;2023-02-01T05:44:49;2.83;;;2.50;;
8413;SDS011;4244;48.684;9.028;2023-02-01T05:47:14;3.10;;;2.70;;
8413;SDS011;4244;48.684;9.028;2023-02-01T05:49:40;3.13;;;2.83;;
8413;SDS011;4244;48.684;9.028;2023-02-01T05:52:06;2.60;;;2.40;;
8413;SDS011;4244;48.684;9.028;2023-02-01T05:54:31;5.77;;;3.37;;
8413;SDS011;4244;48.684;9.028;2023-02-01T05:56:57;3.73;;;3.07;;
8413;SDS011;4244;48.684;9.028;2023-02-01T05:59:23;3.20;;;2.83;;
8413;SDS011;4244;48.684;9.028;2023-02-01T06:01:48;3.30;;;2.90;;
8413;SDS011;4244;48.684;9.028;2023-02-01T06:04:14;2.87;;;2.67;;
8413;SDS011;4244;48.684;9.028;2023-02-01T06:06:40;4.10;;;3.20;;
8413;SDS011;4244;48.684;9.028;2023-02-01T06:09:08;3.50;;;3.20;;
8413;SDS011;4244;48.684;9.028;2023-02-01T06:11:33;3.80;;;3.00;;
8413;SDS011;4244;48.684;9.028;2023-02-01T06:14:00;4.37;;;2.90;;
8413;SDS011;4244;48.684;9.028;2023-02-01T06:16:26;3.03;;;2.47;;
8413;SDS011;4244;48.684;9.028;2023-02-01T06:18:56;5.97;;;3.07;;
8413;SDS011;4244;48.684;9.028;2023-02-01T06:21:21;2.60;;;2.37;;
8413;SDS011;4244;48.684;9.028;2023-02-01T06:23:51;4.30;;;3.63;;
8413;SDS011;4244;48.684;9.028;2023-02-01T06:26:17;4.10;;;2.90;;
8413;SDS011;4244;48.684;9.028;2023-02-01T06:28:43;3.30;;;3.00;;
8413;SDS011;4244;48.684;9.028;2023-02-01T06:31:09;4.20;;;3.10;;
8413;SDS011;4244;48.684;9.028;2023-02-01T06:33:35;3.63;;;2.90;;
8413;SDS011;4244;48.684;9.028;2023-02-01T06:36:03;4.70;;;3.00;;
8413;SDS011;4244;48.684;9.028;2023-02-01T06:38:30;3.70;;;3.40;;
8413;SDS011;4244;48.684;9.028;2023-02-01T06:40:56;3.60;;;3.30;;
8413;SDS011;4244;48.684;9.028;2023-02-01T06:43:25;4.53;;;2.97;;
8413;SDS011;4244;48.684;9.028;2023-02-01T06:45:51;3.20;;;2.63;;
8413;SDS011;4244;48.684;9.028;2023-02-01T06:48:17;3.53;;;2.80;;
8413;SDS011;4244;48.684;9.028;2023-02-01T06:50:43;5.07;;;2.80;;
8413;SDS011;4244;48.684;9.028;2023-02-01T06:53:09;4.53;;;3.43;;
8413;SDS011;4244;48.684;9.028;2023-02-01T06:55:35;3.27;;;2.80;;
8413;SDS011;4244;48.684;9.028;2023-02-01T06:58:01;3.90;;;3.00;;
8413;SDS011;4244;48.684;9.028;2023-02-01T07:00:27;2.87;;;2.60;;
8413;SDS011;4244;48.684;9.028;2023-02-01T07:02:53;2.83;;;2.43;;
8413;SDS011;4244;48.684;9.028;2023-02-01T07:05:19;7.03;;;3.33;;
8413;SDS011;4244;48.684;9.028;2023-02-01T07:07:45;5.90;;;2.90;;
8413;SDS011;4244;48.684;9.028;2023-02-01T07:10:11;3.57;;;3.20;;
8413;SDS011;4244;48.684;9.028;2023-02-01T07:12:37;3.07;;;2.77;;
8413;SDS011;4244;48.684;9.028;2023-02-01T07:15:02;4.10;;;2.93;;
8413;SDS011;4244;48.684;9.028;2023-02-01T07:17:28;5.43;;;3.13;;
8413;SDS011;4244;48.684;9.028;2023-02-01T07:19:55;4.33;;;3.47;;
8413;SDS011;4244;48.684;9.028;2023-02-01T07:22:21;4.30;;;3.20;;
8413;SDS011;4244;48.684;9.028;2023-02-01T07:24:47;3.77;;;2.20;;
8413;SDS011;4244;48.684;9.028;2023-02-01T07:27:13;4.03;;;2.97;;
8413;SDS011;4244;48.684;9.028;2023-02-01T07:29:39;3.00;;;2.70;;
8413;SDS011;4244;48.684;9.028;2023-02-01T07:32:04;3.20;;;2.90;;
8413;SDS011;4244;48.684;9.028;2023-02-01T07:34:30;2.70;;;2.50;;
8413;SDS011;4244;48.684;9.028;2023-02-01T07:36:56;4.60;;;2.77;;
8413;SDS011;4244;48.684;9.028;2023-02-01T07:39:22;2.77;;;2.30;;
8413;SDS011;4244;48.684;9.028;2023-02-01T07:41:47;3.70;;;2.73;;
8413;SDS011;4244;48.684;9.028;2023-02-01T07:44:13;3.23;;;2.83;;
8413;SDS011;4244;48.684;9.028;2023-02-01T07:46:39;3.60;;;2.73;;
8413;SDS011;4244;48.684;9.028;2023-02-01T07:49:05;3.23;;;2.93;;
8413;SDS011;4244;48.684;9.028;2023-02-01T07:51:31;3.90;;;3.17;;
8413;SDS011;4244;48.684;9.028;2023-02-01T07:53:56;6.70;;;3.23;;
8413;SDS011;4244;48.684;9.028;2023-02-01T07:56:22;3.33;;;3.03;;
8413;SDS011;4244;48.684;9.028;2023-02-01T07:58:52;3.30;;;2.93;;
8413;SDS011;4244;48.684;9.028;2023-02-01T08:01:23;3.17;;;2.70;;
8413;SDS011;4244;48.684;9.028;2023-02-01T08:03:51;8.63;;;2.80;;
8413;SDS011;4244;48.684;9.028;2023-02-01T08:06:18;4.70;;;3.80;;
8413;SDS011;4244;48.684;9.028;2023-02-01T08:08:45;6.60;;;4.07;;
8413;SDS011;4244;48.684;9.028;2023-02-01T08:11:12;5.93;;;3.80;;
8413;SDS011;4244;48.684;9.028;2023-02-01T08:13:38;4.10;;;3.20;;
8413;SDS011;4244;48.684;9.028;2023-02-01T08:16:05;3.43;;;3.00;;
8413;SDS011;4244;48.684;9.028;2023-02-01T08:18:32;4.10;;;3.60;;
8413;SDS011;4244;48.684;9.028;2023-02-01T08:21:02;2.87;;;2.60;;
8413;SDS011;4244;48.684;9.028;2023-02-01T08:23:33;3.10;;;2.60;;
8413;SDS011;4244;48.684;9.028;2023-02-01T08:26:16;4.90;;;3.77;;
8413;SDS011;4244;48.684;9.028;2023-02-01T08:28:45;4.47;;;4.07;;
8413;SDS011;4244;48.684;9.028;2023-02-01T08:31:13;4.60;;;2.80;;
8413;SDS011;4244;48.684;9.028;2023-02-01T08:33:40;4.00;;;2.77;;
8413;SDS011;4244;48.684;9.028;2023-02-01T08:36:07;3.50;;;2.50;;
8413;SDS011;4244;48.684;9.028;2023-02-01T08:38:36;4.07;;;3.37;;
8413;SDS011;4244;48.684;9.028;2023-02-01T08:41:04;3.40;;;2.80;;
8413;SDS011;4244;48.684;9.028;2023-02-01T08:43:31;6.70;;;2.70;;
8413;SDS011;4244;48.684;9.028;2023-02-01T08:45:56;4.27;;;2.70;;
8413;SDS011;4244;48.684;9.028;2023-02-01T08:48:22;3.53;;;3.00;;
8413;SDS011;4244;48.684;9.028;2023-02-01T08:50:47;5.10;;;3.30;;
8413;SDS011;4244;48.684;9.028;2023-02-01T08:53:13;3.43;;;2.63;;
8413;SDS011;4244;48.684;9.028;2023-02-01T08:55:39;3.63;;;3.00;;
8413;SDS011;4244;48.684;9.028;2023-02-01T08:58:05;4.20;;;3.23;;
8413;SDS011;4244;48.684;9.028;2023-02-01T09:00:30;3.60;;;3.30;;
8413;SDS011;4244;48.684;9.028;2023-02-01T09:02:56;8.00;;;3.27;;
8413;SDS011;4244;48.684;9.028;2023-02-01T09:05:22;3.40;;;3.07;;
8413;SDS011;4244;48.684;9.028;2023-02-01T09:07:51;5.33;;;3.63;;
8413;SDS011;4244;48.684;9.028;2023-02-01T09:10:17;3.23;;;2.63;;
8413;SDS011;4244;48.684;9.028;2023-02-01T09:12:43;5.90;;;2.97;;
8413;SDS011;4244;48.684;9.028;2023-02-01T09:15:08;3.90;;;2.57;;
8413;SDS011;4244;48.684;9.028;2023-02-01T09:17:34;4.50;;;3.03;;
8413;SDS011;4244;48.684;9.028;2023-02-01T09:20:00;5.40;;;3.00;;
8413;SDS011;4244;48.684;9.028;2023-02-01T09:22:26;4.40;;;3.43;;
8413;SDS011;4244;48.684;9.028;2023-02-01T09:24:52;4.40;;;3.10;;
8413;SDS011;4244;48.684;9.028;2023-02-01T09:27:18;4.77;;;3.10;;
8413;SDS011;4244;48.684;9.028;2023-02-01T09:29:43;4.23;;;3.00;;
8413;SDS011;4244;48.684;9.028;2023-02-01T09:32:09;4.30;;;3.20;;
8413;SDS011;4244;48.684;9.028;2023-02-01T09:34:35;5.53;;;3.30;;
8413;SDS011;4244;48.684;9.028;2023-02-01T09:37:01;6.70;;;3.23;;
8413;SDS011;4244;48.684;9.028;2023-02-01T09:39:27;5.47;;;3.07;;
8413;SDS011;4244;48.684;9.028;2023-02-01T09:47:31;4.40;;;3.00;;
8413;SDS011;4244;48.684;9.028;2023-02-01T09:50:11;7.20;;;3.30;;
8413;SDS011;4244;48.684;9.028;2023-02-01T09:52:51;6.50;;;3.80;;
8413;SDS011;4244;48.684;9.028;2023-02-01T09:55:20;7.30;;;3.50;;
8413;SDS011;4244;48.684;9.028;2023-02-01T09:58:09;6.17;;;3.30;;
8413;SDS011;4244;48.684;9.028;2023-02-01T10:00:57;5.13;;;3.23;;
8413;SDS011;4244;48.684;9.028;2023-02-01T10:03:26;7.67;;;3.70;;
8413;SDS011;4244;48.684;9.028;2023-02-01T10:11:54;4.93;;;2.50;;
8413;SDS011;4244;48.684;9.028;2023-02-01T10:22:45;7.83;;;2.80;;
8413;SDS011;4244;48.684;9.028;2023-02-01T10:25:14;4.03;;;2.90;;
8413;SDS011;4244;48.684;9.028;2023-02-01T10:27:59;8.77;;;3.57;;
8413;SDS011;4244;48.684;9.028;2023-02-01T10:30:27;8.20;;;2.73;;
8413;SDS011;4244;48.684;9.028;2023-02-01T10:32:59;9.70;;;3.10;;
8413;SDS011;4244;48.684;9.028;2023-02-01T10:35:56;7.57;;;2.60;;
8413;SDS011;4244;48.684;9.028;2023-02-01T10:38:28;8.50;;;3.20;;
8413;SDS011;4244;48.684;9.028;2023-02-01T10:40:58;8.30;;;3.40;;
8413;SDS011;4244;48.684;9.028;2023-02-01T10:43:27;7.20;;;3.37;;
8413;SDS011;4244;48.684;9.028;2023-02-01T10:45:53;6.90;;;3.90;;
8413;SDS011;4244;48.684;9.028;2023-02-01T10:48:18;7.40;;;3.93;;
8413;SDS011;4244;48.684;9.028;2023-02-01T10:56:10;4.57;;;2.00;;
8413;SDS011;4244;48.684;9.028;2023-02-01T10:58:42;4.30;;;2.33;;
8413;SDS011;4244;48.684;9.028;2023-02-01T11:01:10;6.57;;;2.50;;
8413;SDS011;4244;48.684;9.028;2023-02-01T11:06:24;7.37;;;3.20;;
8413;SDS011;4244;48.684;9.028;2023-02-01T11:08:51;6.90;;;2.80;;
8413;SDS011;4244;48.684;9.028;2023-02-01T11:11:19;8.00;;;3.37;;
8413;SDS011;4244;48.684;9.028;2023-02-01T11:13:45;5.40;;;2.83;;
8413;SDS011;4244;48.684;9.028;2023-02-01T11:16:36;6.87;;;3.00;;
8413;SDS011;4244;48.684;9.028;2023-02-01T11:19:03;6.23;;;2.87;;
8413;SDS011;4244;48.684;9.028;2023-02-01T11:21:30;8.27;;;3.00;;
8413;SDS011;4244;48.684;9.028;2023-02-01T11:24:00;6.87;;;3.47;;
8413;SDS011;4244;48.684;9.028;2023-02-01T11:26:27;8.43;;;2.80;;
8413;SDS011;4244;48.684;9.028;2023-02-01T11:28:54;10.63;;;4.47;;
8413;SDS011;4244;48.684;9.028;2023-02-01T11:31:23;7.67;;;3.33;;
8413;SDS011;4244;48.684;9.028;2023-02-01T11:33:51;5.93;;;3.07;;
8413;SDS011;4244;48.684;9.028;2023-02-01T11:36:20;8.37;;;3.60;;
8413;SDS011;4244;48.684;9.028;2023-02-01T11:38:54;8.50;;;3.20;;
8413;SDS011;4244;48.684;9.028;2023-02-01T11:41:32;5.07;;;2.60;;
8413;SDS011;4244;48.684;9.028;2023-02-01T11:44:02;8.00;;;2.40;;
8413;SDS011;4244;48.684;9.028;2023-02-01T11:46:43;10.63;;;4.77;;
8413;SDS011;4244;48.684;9.028;2023-02-01T11:54:29;7.87;;;2.80;;
8413;SDS011;4244;48.684;9.028;2023-02-01T11:59:47;8.27;;;3.23;;
8413;SDS011;4244;48.684;9.028;2023-02-01T12:14:13;5.20;;;3.10;;
8413;SDS011;4244;48.684;9.028;2023-02-01T12:19:35;8.03;;;3.10;;
8413;SDS011;4244;48.684;9.028;2023-02-01T12:24:43;6.70;;;2.37;;
8413;SDS011;4244;48.684;9.028;2023-02-01T12:35:38;8.23;;;3.50;;
8413;SDS011;4244;48.684;9.028;2023-02-01T12:44:02;6.00;;;2.57;;
8413;SDS011;4244;48.684;9.028;2023-02-01T12:46:40;5.90;;;2.80;;
8413;SDS011;4244;48.684;9.028;2023-02-01T12:49:42;9.93;;;2.87;;
8413;SDS011;4244;48.684;9.028;2023-02-01T12:52:13;11.50;;;3.13;;
8413;SDS011;4244;48.684;9.028;2023-02-01T12:54:57;7.87;;;3.07;;
8413;SDS011;4244;48.684;9.028;2023-02-01T12:57:27;6.70;;;2.77;;
8413;SDS011;4244;48.684;9.028;2023-02-01T13:08:06;6.27;;;3.23;;
8413;SDS011;4244;48.684;9.028;2023-02-01T13:10:37;6.57;;;2.00;;
8413;SDS011;4244;48.684;9.028;2023-02-01T13:13:19;7.73;;;2.67;;
8413;SDS011;4244;48.684;9.028;2023-02-01T13:16:12;8.20;;;2.90;;
8413;SDS011;4244;48.684;9.028;2023-02-01T13:18:41;6.00;;;2.23;;
8413;SDS011;4244;48.684;9.028;2023-02-01T13:21:16;5.90;;;2.87;;
8413;SDS011;4244;48.684;9.028;2023-02-01T13:23:43;6.37;;;2.70;;
8413;SDS011;4244;48.684;9.028;2023-02-01T13:26:12;7.97;;;2.67;;
8413;SDS011;4244;48.684;9.028;2023-02-01T13:28:47;4.90;;;2.03;;
8413;SDS011;4244;48.684;9.028;2023-02-01T13:42:27;5.67;;;2.30;;
8413;SDS011;4244;48.684;9.028;2023-02-01T13:44:58;7.13;;;3.00;;
8413;SDS011;4244;48.684;9.028;2023-02-01T13:50:18;4.30;;;2.43;;
8413;SDS011;4244;48.684;9.028;2023-02-01T13:52:56;5.97;;;2.47;;
8413;SDS011;4244;48.684;9.028;2023-02-01T13:55:27;5.83;;;2.70;;
8413;SDS011;4244;48.684;9.028;2023-02-01T14:00:49;6.23;;;2.40;;
8413;SDS011;4244;48.684;9.028;2023-02-01T14:03:22;6.43;;;2.90;;
8413;SDS011;4244;48.684;9.028;2023-02-01T14:16:41;6.00;;;3.07;;
8413;SDS011;4244;48.684;9.028;2023-02-01T14:19:20;7.23;;;4.00;;
8413;SDS011;4244;48.684;9.028;2023-02-01T14:24:52;6.47;;;2.80;;
8413;SDS011;4244;48.684;9.028;2023-02-01T14:27:24;10.60;;;4.13;;
8413;SDS011;4244;48.684;9.028;2023-02-01T14:29:57;8.57;;;2.70;;
8413;SDS011;4244;48.684;9.028;2023-02-01T14:32:39;5.10;;;2.50;;
8413;SDS011;4244;48.684;9.028;2023-02-01T14:35:07;8.53;;;3.37;;
8413;SDS011;4244;48.684;9.028;2023-02-01T14:37:42;8.90;;;3.00;;
8413;SDS011;4244;48.684;9.028;2023-02-01T14:42:38;7.00;;;2.90;;
8413;SDS011;4244;48.684;9.028;2023-02-01T14:47:54;6.97;;;3.20;;
8413;SDS011;4244;48.684;9.028;2023-02-01T15:01:05;10.13;;;3.30;;
8413;SDS011;4244;48.684;9.028;2023-02-01T15:09:00;7.47;;;2.93;;
8413;SDS011;4244;48.684;9.028;2023-02-01T15:11:54;10.57;;;3.67;;
8413;SDS011;4244;48.684;9.028;2023-02-01T15:14:27;8.50;;;3.13;;
8413;SDS011;4244;48.684;9.028;2023-02-01T15:16:54;4.77;;;2.73;;
8413;SDS011;4244;48.684;9.028;2023-02-01T15:19:23;9.40;;;3.13;;
8413;SDS011;4244;48.684;9.028;2023-02-01T15:21:51;8.23;;;3.13;;
8413;SDS011;4244;48.684;9.028;2023-02-01T15:24:22;7.83;;;2.67;;
8413;SDS011;4244;48.684;9.028;2023-02-01T15:26:48;8.20;;;2.90;;
8413;SDS011;4244;48.684;9.028;2023-02-01T15:29:14;9.70;;;3.40;;
8413;SDS011;4244;48.684;9.028;2023-02-01T15:34:08;7.93;;;3.57;;
8413;SDS011;4244;48.684;9.028;2023-02-01T15:36:34;8.50;;;3.17;;
8413;SDS011;4244;48.684;9.028;2023-02-01T15:39:17;6.83;;;3.30;;
8413;SDS011;4244;48.684;9.028;2023-02-01T15:42:00;9.53;;;3.00;;
8413;SDS011;4244;48.684;9.028;2023-02-01T15:44:37;5.77;;;3.20;;
8413;SDS011;4244;48.684;9.028;2023-02-01T15:47:19;5.77;;;2.80;;
8413;SDS011;4244;48.684;9.028;2023-02-01T15:49:52;9.03;;;3.43;;
8413;SDS011;4244;48.684;9.028;2023-02-01T15:55:02;6.33;;;3.27;;
8413;SDS011;4244;48.684;9.028;2023-02-01T15:57:49;5.90;;;2.67;;
8413;SDS011;4244;48.684;9.028;2023-02-01T16:03:00;15.50;;;4.50;;
8413;SDS011;4244;48.684;9.028;2023-02-01T16:05:34;8.50;;;3.63;;
8413;SDS011;4244;48.684;9.028;2023-02-01T16:10:29;10.93;;;3.80;;
8413;SDS011;4244;48.684;9.028;2023-02-01T16:12:56;7.30;;;3.47;;
8413;SDS011;4244;48.684;9.028;2023-02-01T16:15:28;8.13;;;4.00;;
8413;SDS011;4244;48.684;9.028;2023-02-01T16:17:54;7.07;;;3.10;;
8413;SDS011;4244;48.684;9.028;2023-02-01T16:20:20;5.83;;;3.60;;
8413;SDS011;4244;48.684;9.028;2023-02-01T16:22:46;9.03;;;3.47;;
8413;SDS011;4244;48.684;9.028;2023-02-01T16:25:12;6.40;;;3.50;;
8413;SDS011;4244;48.684;9.028;2023-02-01T16:27:37;8.60;;;4.20;;
8413;SDS011;4244;48.684;9.028;2023-02-01T16:30:03;7.07;;;3.80;;
8413;SDS011;4244;48.684;9.028;2023-02-01T16:32:29;12.53;;;4.57;;
8413;SDS011;4244;48.684;9.028;2023-02-01T16:34:56;6.13;;;3.53;;
8413;SDS011;4244;48.684;9.028;2023-02-01T16:37:22;14.23;;;4.30;;
8413;SDS011;4244;48.684;9.028;2023-02-01T16:39:48;9.07;;;4.07;;
8413;SDS011;4244;48.684;9.028;2023-02-01T16:42:15;6.80;;;2.97;;
8413;SDS011;4244;48.684;9.028;2023-02-01T16:44:41;7.70;;;3.03;;
8413;SDS011;4244;48.684;9.028;2023-02-01T16:47:25;13.33;;;4.27;;
8413;SDS011;4244;48.684;9.028;2023-02-01T16:49:51;7.30;;;2.80;;
8413;SDS011;4244;48.684;9.028;2023-02-01T16:52:26;8.80;;;3.07;;
8413;SDS011;4244;48.684;9.028;2023-02-01T16:54:52;10.50;;;3.43;;
8413;SDS011;4244;48.684;9.028;2023-02-01T16:57:18;9.30;;;3.57;;
8413;SDS011;4244;48.684;9.028;2023-02-01T16:59:47;8.07;;;3.90;;
8413;SDS011;4244;48.684;9.028;2023-02-01T17:02:14;8.30;;;3.60;;
8413;SDS011;4244;48.684;9.028;2023-02-01T17:04:43;9.33;;;3.77;;
8413;SDS011;4244;48.684;9.028;2023-02-01T17:07:13;6.47;;;3.27;;
8413;SDS011;4244;48.684;9.028;2023-02-01T17:09:39;8.63;;;3.07;;
8413;SDS011;4244;48.684;9.028;2023-02-01T17:12:05;8.13;;;3.20;;
8413;SDS011;4244;48.684;9.028;2023-02-01T17:14:32;9.60;;;3.20;;
8413;SDS011;4244;48.684;9.028;2023-02-01T17:17:01;7.87;;;4.70;;
8413;SDS011;4244;48.684;9.028;2023-02-01T17:19:27;12.70;;;3.97;;
8413;SDS011;4244;48.684;9.028;2023-02-01T17:21:54;8.30;;;3.37;;
8413;SDS011;4244;48.684;9.028;2023-02-01T17:24:24;8.33;;;4.60;;
8413;SDS011;4244;48.684;9.028;2023-02-01T17:26:52;8.80;;;3.90;;
8413;SDS011;4244;48.684;9.028;2023-02-01T17:29:18;7.37;;;3.70;;
8413;SDS011;4244;48.684;9.028;2023-02-01T17:31:45;9.73;;;3.80;;
8413;SDS011;4244;48.684;9.028;2023-02-01T17:34:12;5.53;;;3.40;;
8413;SDS011;4244;48.684;9.028;2023-02-01T17:36:43;9.10;;;3.70;;
8413;SDS011;4244;48.684;9.028;2023-02-01T17:39:09;11.30;;;3.80;;
8413;SDS011;4244;48.684;9.028;2023-02-01T17:41:35;9.03;;;4.57;;
8413;SDS011;4244;48.684;9.028;2023-02-01T17:44:02;4.20;;;3.30;;
8413;SDS011;4244;48.684;9.028;2023-02-01T17:46:28;6.13;;;3.13;;
8413;SDS011;4244;48.684;9.028;2023-02-01T17:48:55;10.00;;;3.70;;
8413;SDS011;4244;48.684;9.028;2023-02-01T17:51:24;7.47;;;3.70;;
8413;SDS011;4244;48.684;9.028;2023-02-01T17:53:52;7.57;;;3.43;;
8413;SDS011;4244;48.684;9.028;2023-02-01T17:56:19;11.33;;;4.57;;
8413;SDS011;4244;48.684;9.028;2023-02-01T17:58:48;7.67;;;4.53;;
8413;SDS011;4244;48.684;9.028;2023-02-01T18:01:15;11.40;;;6.00;;
8413;SDS011;4244;48.684;9.028;2023-02-01T18:03:43;10.27;;;7.37;;
8413;SDS011;4244;48.684;9.028;2023-02-01T18:06:11;9.67;;;6.90;;
8413;SDS011;4244;48.684;9.028;2023-02-01T18:08:38;10.53;;;5.43;;
8413;SDS011;4244;48.684;9.028;2023-02-01T18:11:05;8.13;;;6.50;;
8413;SDS011;4244;48.684;9.028;2023-02-01T18:13:38;8.67;;;4.77;;
8413;SDS011;4244;48.684;9.028;2023-02-01T18:16:04;8.13;;;4.20;;
8413;SDS011;4244;48.684;9.028;2023-02-01T18:18:30;9.77;;;4.93;;